createdAt,value
2018-12-21T00:00:40.580Z,3.00
2018-12-21T00:03:12.017Z,3.60
2018-12-21T00:05:51.610Z,3.10
2018-12-21T00:08:22.491Z,3.13
2018-12-21T00:10:53.287Z,2.83
2018-12-21T00:13:24.131Z,4.63
2018-12-21T00:16:03.810Z,3.47
2018-12-21T00:18:37.300Z,3.00
2018-12-21T00:21:10.774Z,4.03
2018-12-21T00:23:50.838Z,4.37
2018-12-21T00:26:30.556Z,2.67
2018-12-21T00:32:14.297Z,3.70
2018-12-21T00:34:59.719Z,3.70
2018-12-21T00:37:42.741Z,4.93
2018-12-21T00:40:19.085Z,3.90
2018-12-21T00:43:05.438Z,3.43
2018-12-21T00:45:48.848Z,3.33
2018-12-21T00:48:39.640Z,3.63
2018-12-21T00:51:08.942Z,3.87
2018-12-21T00:53:39.706Z,5.33
2018-12-21T00:56:27.944Z,3.70
2018-12-21T00:59:16.680Z,3.40
2018-12-21T01:01:48.277Z,4.60
2018-12-21T01:04:19.783Z,3.87
2018-12-21T01:06:59.485Z,4.17
2018-12-21T01:09:39.464Z,5.10
2018-12-21T01:12:10.080Z,4.93
2018-12-21T01:14:57.104Z,4.43
2018-12-21T01:17:33.708Z,3.33
2018-12-21T01:20:13.375Z,5.87
2018-12-21T01:22:46.435Z,3.20
2018-12-21T01:25:26.989Z,4.00
2018-12-21T01:28:06.650Z,3.23
2018-12-21T01:30:40.083Z,4.40
2018-12-21T01:33:24.071Z,5.87
2018-12-21T01:36:03.922Z,5.03
2018-12-21T01:38:37.196Z,3.00
2018-12-21T01:41:17.334Z,5.03
2018-12-21T01:43:56.968Z,6.87
2018-12-21T01:46:30.128Z,3.57
2018-12-21T01:49:10.433Z,4.67
2018-12-21T01:51:47.206Z,3.63
2018-12-21T01:54:18.076Z,3.43
2018-12-21T01:56:57.849Z,4.53
2018-12-21T01:59:31.025Z,3.67
2018-12-21T02:02:02.496Z,5.97
2018-12-21T02:04:42.291Z,3.90
2018-12-21T02:07:20.330Z,3.20
2018-12-21T02:12:58.427Z,4.27
2018-12-21T02:15:32.589Z,4.40
2018-12-21T02:18:13.356Z,3.77
2018-12-21T02:20:54.229Z,3.30
2018-12-21T02:23:24.911Z,4.70
2018-12-21T02:26:04.650Z,3.43
2018-12-21T02:28:48.525Z,2.17
2018-12-21T02:31:21.620Z,3.93
2018-12-21T02:34:02.046Z,3.50
2018-12-21T02:36:42.962Z,2.70
2018-12-21T02:39:31.177Z,2.47
2018-12-21T02:42:11.197Z,3.37
2018-12-21T02:44:59.436Z,4.17
2018-12-21T02:47:47.300Z,4.77
2018-12-21T02:50:27.586Z,3.20
2018-12-21T02:53:00.623Z,2.43
2018-12-21T02:58:24.050Z,2.70
2018-12-21T03:00:57.296Z,3.10
2018-12-21T03:03:28.762Z,4.27
2018-12-21T03:06:02.414Z,4.27
2018-12-21T03:08:48.933Z,3.83
2018-12-21T03:11:29.459Z,3.77
2018-12-21T03:14:09.065Z,3.23
2018-12-21T03:16:42.436Z,2.50
2018-12-21T03:19:11.915Z,2.20
2018-12-21T03:21:45.267Z,3.40
2018-12-21T03:24:16.446Z,4.23
2018-12-21T03:26:56.207Z,2.33
2018-12-21T03:29:44.524Z,5.00
2018-12-21T03:32:26.475Z,4.23
2018-12-21T03:34:57.826Z,3.40
2018-12-21T03:37:27.105Z,3.27
2018-12-21T03:40:06.940Z,3.40
2018-12-21T03:42:37.613Z,2.20
2018-12-21T03:45:25.766Z,2.33
2018-12-21T03:47:57.148Z,4.23
2018-12-21T03:50:28.078Z,2.70
2018-12-21T03:52:59.135Z,3.87
2018-12-21T03:55:32.298Z,3.03
2018-12-21T03:58:03.649Z,2.90
2018-12-21T04:00:53.840Z,2.57
2018-12-21T04:03:27.711Z,2.90
2018-12-21T04:06:07.259Z,2.77
2018-12-21T04:08:55.535Z,6.57
2018-12-21T04:11:31.186Z,3.40
2018-12-21T04:14:21.109Z,4.43
2018-12-21T04:19:52.335Z,6.37
2018-12-21T04:22:23.215Z,4.63
2018-12-21T04:24:56.582Z,4.27
2018-12-21T04:27:27.288Z,4.67
2018-12-21T04:29:57.987Z,3.63
2018-12-21T04:32:28.714Z,2.60
2018-12-21T04:35:02.837Z,5.00
2018-12-21T04:37:39.835Z,3.10
2018-12-21T04:40:21.335Z,3.87
2018-12-21T04:42:51.933Z,2.40
2018-12-21T04:45:31.967Z,3.30
2018-12-21T04:48:12.757Z,5.30
2018-12-21T04:50:52.487Z,3.10
2018-12-21T04:53:25.883Z,3.80
2018-12-21T04:55:55.184Z,4.80
2018-12-21T04:58:36.003Z,2.43
2018-12-21T05:01:15.831Z,3.90
2018-12-21T05:03:49.818Z,3.80
2018-12-21T05:06:31.957Z,3.40
2018-12-21T05:09:11.569Z,5.37
2018-12-21T05:11:42.399Z,2.27
2018-12-21T05:14:23.040Z,3.93
2018-12-21T05:16:56.357Z,3.53
2018-12-21T05:19:27.574Z,3.07
2018-12-21T05:22:00.891Z,3.23
2018-12-21T05:24:51.654Z,3.63
2018-12-21T05:27:39.251Z,3.83
2018-12-21T05:30:19.741Z,2.53
2018-12-21T05:32:51.041Z,2.67
2018-12-21T05:35:31.955Z,4.60
2018-12-21T05:38:07.816Z,3.73
2018-12-21T05:40:39.201Z,2.50
2018-12-21T05:43:10.028Z,3.57
2018-12-21T05:45:40.778Z,3.03
2018-12-21T05:48:09.851Z,2.73
2018-12-21T05:50:40.423Z,2.67
2018-12-21T05:53:20.290Z,4.43
2018-12-21T05:55:51.077Z,3.50
2018-12-21T05:58:21.981Z,3.70
2018-12-21T06:00:55.962Z,2.00
2018-12-21T06:03:36.576Z,3.13
2018-12-21T06:06:07.403Z,3.43
2018-12-21T06:08:47.664Z,5.50
2018-12-21T06:11:21.835Z,3.70
2018-12-21T06:13:51.408Z,2.63
2018-12-21T06:16:31.189Z,1.83
2018-12-21T06:19:12.283Z,1.93
2018-12-21T06:21:45.507Z,2.77
2018-12-21T06:24:19.372Z,3.47
2018-12-21T06:26:59.551Z,4.07
2018-12-21T06:29:39.097Z,2.57
2018-12-21T06:32:09.953Z,4.00
2018-12-21T06:34:40.842Z,5.27
2018-12-21T06:37:20.270Z,3.17
2018-12-21T06:39:59.871Z,5.27
2018-12-21T06:42:40.645Z,4.70
2018-12-21T06:45:20.522Z,4.00
2018-12-21T06:48:00.161Z,5.83
2018-12-21T06:50:33.174Z,3.53
2018-12-21T06:53:04.560Z,4.37
2018-12-21T06:55:35.425Z,4.33
2018-12-21T06:58:06.332Z,3.60
2018-12-21T07:00:39.855Z,3.20
2018-12-21T07:03:20.072Z,3.30
2018-12-21T07:05:59.941Z,2.40
2018-12-21T07:08:33.057Z,5.63
2018-12-21T07:11:06.483Z,3.00
2018-12-21T07:13:40.207Z,2.67
2018-12-21T07:16:20.436Z,2.23
2018-12-21T07:19:08.579Z,2.07
2018-12-21T07:24:59.007Z,3.07
2018-12-21T07:27:39.084Z,3.17
2018-12-21T07:30:19.091Z,4.50
2018-12-21T07:32:50.744Z,2.40
2018-12-21T07:35:32.205Z,2.17
2018-12-21T07:38:12.269Z,2.37
2018-12-21T07:40:45.701Z,3.27
2018-12-21T07:43:17.156Z,2.67
2018-12-21T07:45:56.917Z,4.20
2018-12-21T07:48:30.172Z,3.53
2018-12-21T07:51:10.341Z,3.23
2018-12-21T07:53:41.248Z,2.67
2018-12-21T07:56:31.279Z,1.90
2018-12-21T07:59:09.119Z,4.20
2018-12-21T08:01:51.394Z,2.93
2018-12-21T08:04:30.307Z,2.20
2018-12-21T08:09:54.531Z,3.10
2018-12-21T08:12:27.300Z,3.50
2018-12-21T08:15:00.454Z,3.20
2018-12-21T08:17:40.628Z,2.77
2018-12-21T08:20:20.215Z,3.07
2018-12-21T08:22:53.367Z,3.50
2018-12-21T08:25:33.351Z,2.83
2018-12-21T08:28:13.855Z,3.53
2018-12-21T08:30:53.302Z,3.00
2018-12-21T08:33:42.216Z,3.93
2018-12-21T08:36:33.135Z,3.27
2018-12-21T08:39:15.176Z,2.60
2018-12-21T08:41:49.325Z,6.43
2018-12-21T08:47:32.244Z,16.90
2018-12-21T08:50:12.108Z,5.20
2018-12-21T08:52:43.017Z,6.50
2018-12-21T08:58:23.179Z,9.37
2018-12-21T09:00:52.595Z,4.47
2018-12-21T09:03:23.363Z,2.13
2018-12-21T09:06:03.189Z,3.63
2018-12-21T09:08:43.102Z,6.30
2018-12-21T09:11:33.251Z,4.50
2018-12-21T09:14:04.532Z,9.50
2018-12-21T09:28:41.220Z,3.53
2018-12-21T09:31:20.802Z,3.40
2018-12-21T09:33:54.167Z,1.60
2018-12-21T09:36:34.492Z,3.20
2018-12-21T09:39:08.423Z,2.13
2018-12-21T09:41:39.836Z,1.70
2018-12-21T09:44:13.147Z,2.03
2018-12-21T09:47:03.935Z,2.90
2018-12-21T09:52:45.799Z,2.67
2018-12-21T09:55:25.567Z,1.87
2018-12-21T09:58:06.358Z,2.10
2018-12-21T10:00:37.529Z,1.87
2018-12-21T10:03:17.239Z,2.83
2018-12-21T10:06:03.451Z,1.83
2018-12-21T10:11:46.406Z,1.50
2018-12-21T10:14:20.121Z,1.63
2018-12-21T10:19:56.743Z,2.73
2018-12-21T10:22:31.551Z,1.40
2018-12-21T10:28:05.934Z,0.83
2018-12-21T10:30:39.322Z,1.13
2018-12-21T10:33:10.678Z,0.80
2018-12-21T10:38:36.575Z,0.90
2018-12-21T10:44:30.187Z,1.03
2018-12-21T10:47:10.239Z,1.23
2018-12-21T10:49:49.883Z,0.97
2018-12-21T10:52:29.625Z,2.60
2018-12-21T10:55:09.212Z,2.90
2018-12-21T10:57:56.448Z,3.27
2018-12-21T11:00:47.422Z,1.30
2018-12-21T11:03:21.375Z,2.73
2018-12-21T11:06:12.057Z,2.93
2018-12-21T11:08:45.817Z,1.77
2018-12-21T11:14:09.481Z,2.47
2018-12-21T11:16:49.051Z,1.27
2018-12-21T11:19:22.295Z,3.43
2018-12-21T11:21:55.919Z,5.90
2018-12-21T11:24:35.468Z,1.57
2018-12-21T11:27:11.931Z,2.63
2018-12-21T11:29:51.734Z,1.83
2018-12-21T11:32:32.716Z,1.20
2018-12-21T11:35:06.044Z,1.20
2018-12-21T11:37:46.251Z,5.93
2018-12-21T11:40:20.233Z,1.00
2018-12-21T11:42:49.750Z,1.30
2018-12-21T11:48:23.759Z,2.20
2018-12-21T11:50:57.161Z,2.50
2018-12-21T11:53:28.372Z,1.00
2018-12-21T11:56:08.052Z,1.90
2018-12-21T11:58:39.009Z,0.70
2018-12-21T12:01:27.167Z,4.57
2018-12-21T12:04:14.902Z,1.00
2018-12-21T12:06:48.673Z,1.10
2018-12-21T12:09:29.071Z,1.77
2018-12-21T12:12:12.803Z,1.13
2018-12-21T12:14:53.510Z,1.53
2018-12-21T12:17:33.280Z,1.13
2018-12-21T12:20:21.353Z,0.80
2018-12-21T12:22:55.426Z,0.73
2018-12-21T12:31:33.944Z,2.07
2018-12-21T12:37:14.060Z,1.13
2018-12-21T12:40:01.690Z,0.90
2018-12-21T12:42:35.559Z,0.83
2018-12-21T12:45:26.198Z,0.60
2018-12-21T12:51:00.597Z,1.90
2018-12-21T12:53:34.597Z,5.07
2018-12-21T12:56:08.406Z,1.40
2018-12-21T13:01:45.038Z,0.60
2018-12-21T13:04:24.589Z,0.50
2018-12-21T13:07:04.205Z,0.60
2018-12-21T13:09:35.051Z,1.63
2018-12-21T13:12:23.034Z,2.50
2018-12-21T13:15:03.507Z,0.63
2018-12-21T13:17:36.750Z,0.40
2018-12-21T13:23:02.041Z,3.10
2018-12-21T13:25:35.854Z,0.83
2018-12-21T13:31:25.746Z,0.93
2018-12-21T13:33:57.238Z,1.00
2018-12-21T13:36:28.042Z,1.07
2018-12-21T13:38:59.091Z,1.40
2018-12-21T13:41:49.068Z,0.70
2018-12-21T13:44:36.805Z,0.60
2018-12-21T13:47:10.754Z,0.77
2018-12-21T13:52:38.510Z,0.70
2018-12-21T13:55:20.688Z,0.50
2018-12-21T13:57:54.309Z,0.60
2018-12-21T14:00:25.522Z,0.67
2018-12-21T14:03:13.727Z,0.50
2018-12-21T14:08:56.887Z,0.40
2018-12-21T14:14:43.107Z,0.50
2018-12-21T14:20:22.920Z,1.70
2018-12-21T14:26:15.227Z,0.63
2018-12-21T14:32:02.456Z,0.73
2018-12-21T14:34:50.004Z,0.87
2018-12-21T14:37:23.918Z,0.60
2018-12-21T14:39:55.147Z,0.97
2018-12-21T14:42:35.536Z,0.50
2018-12-21T14:45:25.538Z,0.60
2018-12-21T14:48:05.758Z,0.90
2018-12-21T14:53:44.129Z,0.60
2018-12-21T14:56:14.926Z,0.57
2018-12-21T14:58:55.488Z,0.87
2018-12-21T15:04:31.903Z,0.90
2018-12-21T15:07:22.200Z,0.63
2018-12-21T15:10:12.897Z,0.60
2018-12-21T15:12:53.987Z,0.80
2018-12-21T15:15:35.619Z,1.70
2018-12-21T15:18:23.832Z,0.80
2018-12-21T15:21:14.493Z,0.93
2018-12-21T15:23:54.866Z,2.40
2018-12-21T15:32:31.116Z,1.33
2018-12-21T15:35:19.000Z,0.93
2018-12-21T15:37:59.419Z,1.40
2018-12-21T15:46:54.849Z,0.80
2018-12-21T15:49:42.680Z,4.87
2018-12-21T15:52:12.315Z,9.77
2018-12-21T15:54:45.394Z,2.83
2018-12-21T16:00:16.764Z,0.80
2018-12-21T16:02:52.001Z,1.00
2018-12-21T16:05:25.662Z,1.10
2018-12-21T16:08:05.664Z,1.10
2018-12-21T16:10:45.352Z,1.00
2018-12-21T16:13:31.368Z,1.33
2018-12-21T16:16:19.024Z,1.10
2018-12-21T16:18:59.003Z,1.20
2018-12-21T16:24:24.622Z,0.80
2018-12-21T16:26:54.199Z,1.33
2018-12-21T16:29:33.718Z,1.47
2018-12-21T16:35:05.969Z,1.10
2018-12-21T16:37:53.528Z,1.40
2018-12-21T16:40:33.797Z,2.23
2018-12-21T16:46:05.459Z,1.10
2018-12-21T16:48:47.259Z,1.30
2018-12-21T16:51:27.805Z,1.53
2018-12-21T16:54:08.567Z,1.20
2018-12-21T16:56:37.598Z,1.47
2018-12-21T16:59:08.499Z,1.30
2018-12-21T17:04:55.398Z,1.40
2018-12-21T17:07:29.257Z,2.20
2018-12-21T17:13:03.580Z,1.63
2018-12-21T17:18:33.725Z,1.00
2018-12-21T17:24:10.031Z,0.60
2018-12-21T17:26:57.837Z,0.77
2018-12-21T17:29:30.957Z,0.60
2018-12-21T17:32:04.541Z,0.70
2018-12-21T17:34:44.806Z,1.03
2018-12-21T17:37:18.082Z,0.90
2018-12-21T17:39:58.287Z,1.10
2018-12-21T17:42:29.296Z,2.70
2018-12-21T17:45:09.178Z,2.33
2018-12-21T17:47:42.414Z,1.43
2018-12-21T17:50:30.278Z,1.90
2018-12-21T17:53:04.087Z,1.20
2018-12-21T17:55:38.606Z,0.70
2018-12-21T17:58:11.723Z,0.80
2018-12-21T18:00:52.120Z,0.50
2018-12-21T18:06:25.795Z,0.70
2018-12-21T18:08:59.648Z,0.83
2018-12-21T18:11:47.353Z,0.70
2018-12-21T18:14:27.839Z,0.70
2018-12-21T18:16:59.680Z,0.73
2018-12-21T18:19:30.827Z,0.97
2018-12-21T18:22:09.099Z,0.63
2018-12-21T18:24:42.307Z,0.60
2018-12-21T18:27:22.524Z,0.73
2018-12-21T18:30:02.263Z,1.03
2018-12-21T18:32:37.058Z,1.30
2018-12-21T18:35:15.322Z,0.80
2018-12-21T18:37:54.026Z,0.97
2018-12-21T18:40:23.450Z,1.13
2018-12-21T18:42:56.646Z,1.90
2018-12-21T18:45:36.923Z,0.70
2018-12-21T18:48:16.495Z,1.17
2018-12-21T18:50:57.299Z,0.70
2018-12-21T18:53:30.631Z,0.87
2018-12-21T18:56:10.788Z,0.90
2018-12-21T18:58:51.703Z,0.60
2018-12-21T19:04:19.544Z,0.70
2018-12-21T19:09:56.097Z,1.03
2018-12-21T19:12:31.435Z,1.10
2018-12-21T19:15:06.151Z,0.73
2018-12-21T19:20:40.319Z,0.80
2018-12-21T19:23:11.469Z,1.13
2018-12-21T19:25:53.771Z,0.80
2018-12-21T19:31:38.070Z,0.80
2018-12-21T19:34:26.617Z,1.30
2018-12-21T19:40:15.828Z,2.10
2018-12-21T19:46:01.096Z,2.43
2018-12-21T19:48:42.902Z,0.77
2018-12-21T19:51:16.072Z,1.00
2018-12-21T19:53:47.904Z,0.70
2018-12-21T19:56:27.131Z,1.00
2018-12-21T19:59:07.226Z,1.00
2018-12-21T20:01:38.799Z,1.03
2018-12-21T20:04:19.498Z,1.33
2018-12-21T20:06:59.110Z,0.93
2018-12-21T20:09:38.799Z,0.83
2018-12-21T20:12:09.815Z,1.13
2018-12-21T20:14:40.657Z,0.80
2018-12-21T20:17:20.417Z,0.60
2018-12-21T20:20:08.296Z,0.90
2018-12-21T20:22:48.628Z,0.97
2018-12-21T20:25:29.319Z,1.10
2018-12-21T20:28:09.108Z,1.73
2018-12-21T20:30:57.360Z,1.30
2018-12-21T20:33:28.887Z,1.20
2018-12-21T20:36:09.374Z,1.60
2018-12-21T20:38:49.358Z,1.10
2018-12-21T20:41:27.479Z,1.40
2018-12-21T20:44:00.766Z,1.03
2018-12-21T20:46:32.509Z,1.00
2018-12-21T20:49:04.211Z,2.50
2018-12-21T20:51:52.079Z,1.30
2018-12-21T20:54:32.562Z,1.73
2018-12-21T21:00:27.473Z,1.37
2018-12-21T21:02:58.987Z,1.23
2018-12-21T21:05:47.229Z,1.57
2018-12-21T21:08:27.426Z,1.40
2018-12-21T21:14:10.535Z,0.90
2018-12-21T21:19:53.009Z,1.33
2018-12-21T21:22:26.401Z,1.90
2018-12-21T21:25:06.429Z,1.37
2018-12-21T21:27:37.159Z,1.97
2018-12-21T21:30:14.144Z,1.47
2018-12-21T21:33:02.160Z,1.40
2018-12-21T21:35:42.527Z,1.57
2018-12-21T21:41:21.037Z,2.27
2018-12-21T21:44:03.371Z,1.10
2018-12-21T21:46:43.322Z,1.60
2018-12-21T21:49:20.701Z,0.90
2018-12-21T21:51:52.098Z,2.00
2018-12-21T21:54:25.365Z,1.33
2018-12-21T21:56:59.378Z,1.93
2018-12-21T21:59:39.838Z,1.20
2018-12-21T22:02:14.972Z,1.17
2018-12-21T22:04:55.032Z,1.23
2018-12-21T22:07:34.835Z,1.43
2018-12-21T22:10:14.418Z,1.07
2018-12-21T22:12:45.377Z,1.50
2018-12-21T22:15:25.273Z,1.37
2018-12-21T22:18:05.063Z,1.30
2018-12-21T22:20:44.725Z,1.30
2018-12-21T22:23:15.666Z,1.43
2018-12-21T22:25:53.573Z,1.97
2018-12-21T22:28:24.569Z,2.40
2018-12-21T22:31:04.287Z,1.07
2018-12-21T22:33:37.522Z,2.17
2018-12-21T22:36:26.006Z,1.10
2018-12-21T22:38:59.648Z,2.87
2018-12-21T22:41:41.979Z,1.80
2018-12-21T22:44:17.211Z,1.00
2018-12-21T22:49:49.980Z,2.03
2018-12-21T22:52:33.455Z,1.53
2018-12-21T22:55:07.159Z,1.50
2018-12-21T22:57:39.040Z,1.20
2018-12-21T23:00:16.710Z,1.87
2018-12-21T23:03:05.051Z,1.40
2018-12-21T23:05:46.289Z,1.40
2018-12-21T23:08:19.440Z,1.40
2018-12-21T23:14:06.747Z,1.50
2018-12-21T23:16:37.688Z,0.90
2018-12-21T23:19:28.573Z,1.43
2018-12-21T23:21:59.953Z,2.30
2018-12-21T23:24:40.522Z,1.50
2018-12-21T23:27:11.398Z,1.43
2018-12-21T23:29:44.748Z,1.13
2018-12-21T23:32:24.651Z,1.30
2018-12-21T23:34:55.548Z,1.23
2018-12-21T23:37:43.079Z,1.93
2018-12-21T23:40:16.818Z,4.47
2018-12-21T23:42:47.368Z,1.37
2018-12-21T23:45:35.469Z,2.00
2018-12-21T23:48:15.560Z,1.20
2018-12-21T23:50:55.518Z,1.73
2018-12-21T23:53:26.205Z,0.80
2018-12-21T23:56:12.136Z,1.13
2018-12-21T23:58:48.853Z,1.00
